sensor_id;sensor_type;location;lat;lon;timestamp;pressure;altitude;pressure_sealevel;temperature;humidity
57412;BME280;43247;52.828;-8.980;2023-06-22T00:00:55;101907.66;;;16.19;76.90
57412;BME280;43247;52.828;-8.980;2023-06-22T00:01:55;101907.19;;;16.17;76.85
57412;BME280;43247;52.828;-8.980;2023-06-22T00:02:55;101908.14;;;16.16;76.90
57412;BME280;43247;52.828;-8.980;2023-06-22T00:03:55;101909.85;;;16.14;76.94
57412;BME280;43247;52.828;-8.980;2023-06-22T00:04:55;101911.95;;;16.14;76.97
57412;BME280;43247;52.828;-8.980;2023-06-22T00:05:55;101912.79;;;16.12;77.02
57412;BME280;43247;52.828;-8.980;2023-06-22T00:06:55;101913.89;;;16.11;77.05
57412;BME280;43247;52.828;-8.980;2023-06-22T00:07:56;101914.76;;;16.10;77.18
57412;BME280;43247;52.828;-8.980;2023-06-22T00:08:56;101915.91;;;16.08;77.15
57412;BME280;43247;52.828;-8.980;2023-06-22T00:09:56;101917.65;;;16.08;77.25
57412;BME280;43247;52.828;-8.980;2023-06-22T00:10:56;101916.48;;;16.07;77.21
57412;BME280;43247;52.828;-8.980;2023-06-22T00:11:57;101916.24;;;16.06;77.17
57412;BME280;43247;52.828;-8.980;2023-06-22T00:12:57;101918.38;;;16.05;77.16
57412;BME280;43247;52.828;-8.980;2023-06-22T00:13:57;101918.86;;;16.05;77.32
57412;BME280;43247;52.828;-8.980;2023-06-22T00:14:58;101919.20;;;16.03;77.27
57412;BME280;43247;52.828;-8.980;2023-06-22T00:15:58;101922.17;;;16.03;77.28
57412;BME280;43247;52.828;-8.980;2023-06-22T00:16:58;101921.44;;;16.02;77.25
57412;BME280;43247;52.828;-8.980;2023-06-22T00:17:58;101921.80;;;16.01;77.27
57412;BME280;43247;52.828;-8.980;2023-06-22T00:18:58;101921.09;;;16.00;77.32
57412;BME280;43247;52.828;-8.980;2023-06-22T00:19:59;101920.94;;;15.99;77.15
57412;BME280;43247;52.828;-8.980;2023-06-22T00:20:59;101919.09;;;15.98;77.15
57412;BME280;43247;52.828;-8.980;2023-06-22T00:21:59;101918.10;;;15.97;77.15
57412;BME280;43247;52.828;-8.980;2023-06-22T00:23:00;101918.22;;;15.96;77.05
57412;BME280;43247;52.828;-8.980;2023-06-22T00:24:00;101919.01;;;15.95;77.20
57412;BME280;43247;52.828;-8.980;2023-06-22T00:25:00;101919.31;;;15.94;77.16
57412;BME280;43247;52.828;-8.980;2023-06-22T00:26:00;101918.51;;;15.93;77.24
57412;BME280;43247;52.828;-8.980;2023-06-22T00:27:00;101918.54;;;15.92;77.40
57412;BME280;43247;52.828;-8.980;2023-06-22T00:28:01;101917.20;;;15.92;77.62
57412;BME280;43247;52.828;-8.980;2023-06-22T00:29:00;101918.44;;;15.90;77.42
57412;BME280;43247;52.828;-8.980;2023-06-22T00:30:01;101917.78;;;15.89;77.33
57412;BME280;43247;52.828;-8.980;2023-06-22T00:31:01;101918.70;;;15.87;77.33
57412;BME280;43247;52.828;-8.980;2023-06-22T00:32:01;101918.75;;;15.86;77.45
57412;BME280;43247;52.828;-8.980;2023-06-22T00:33:01;101917.92;;;15.85;77.45
57412;BME280;43247;52.828;-8.980;2023-06-22T00:34:01;101918.82;;;15.85;77.37
57412;BME280;43247;52.828;-8.980;2023-06-22T00:35:02;101919.46;;;15.84;77.46
57412;BME280;43247;52.828;-8.980;2023-06-22T00:36:02;101920.55;;;15.83;77.37
57412;BME280;43247;52.828;-8.980;2023-06-22T00:37:03;101920.80;;;15.83;77.47
57412;BME280;43247;52.828;-8.980;2023-06-22T00:38:02;101918.96;;;15.81;77.57
57412;BME280;43247;52.828;-8.980;2023-06-22T00:39:03;101920.66;;;15.81;77.62
57412;BME280;43247;52.828;-8.980;2023-06-22T00:40:04;101919.16;;;15.79;77.60
57412;BME280;43247;52.828;-8.980;2023-06-22T00:41:04;101916.27;;;15.79;77.57
57412;BME280;43247;52.828;-8.980;2023-06-22T00:42:05;101916.78;;;15.77;77.66
57412;BME280;43247;52.828;-8.980;2023-06-22T00:43:05;101916.33;;;15.76;77.56
57412;BME280;43247;52.828;-8.980;2023-06-22T00:44:04;101915.47;;;15.75;77.58
57412;BME280;43247;52.828;-8.980;2023-06-22T00:45:06;101915.76;;;15.73;77.59
57412;BME280;43247;52.828;-8.980;2023-06-22T00:46:05;101915.18;;;15.73;77.62
57412;BME280;43247;52.828;-8.980;2023-06-22T00:47:06;101912.76;;;15.72;77.66
57412;BME280;43247;52.828;-8.980;2023-06-22T00:48:08;101912.02;;;15.71;77.63
57412;BME280;43247;52.828;-8.980;2023-06-22T00:49:06;101914.60;;;15.70;77.67
57412;BME280;43247;52.828;-8.980;2023-06-22T00:50:07;101913.81;;;15.69;77.68
57412;BME280;43247;52.828;-8.980;2023-06-22T00:51:06;101913.23;;;15.68;77.71
57412;BME280;43247;52.828;-8.980;2023-06-22T00:52:07;101913.72;;;15.67;77.72
57412;BME280;43247;52.828;-8.980;2023-06-22T00:53:08;101914.24;;;15.66;77.73
57412;BME280;43247;52.828;-8.980;2023-06-22T00:54:07;101916.42;;;15.65;77.87
57412;BME280;43247;52.828;-8.980;2023-06-22T00:55:08;101916.87;;;15.65;77.78
57412;BME280;43247;52.828;-8.980;2023-06-22T00:56:07;101919.89;;;15.64;77.94
57412;BME280;43247;52.828;-8.980;2023-06-22T00:57:07;101920.93;;;15.64;77.87
57412;BME280;43247;52.828;-8.980;2023-06-22T00:58:08;101923.35;;;15.63;77.94
57412;BME280;43247;52.828;-8.980;2023-06-22T00:59:08;101923.75;;;15.62;77.92
57412;BME280;43247;52.828;-8.980;2023-06-22T01:00:09;101924.75;;;15.61;77.83
57412;BME280;43247;52.828;-8.980;2023-06-22T01:01:08;101926.81;;;15.60;77.77
57412;BME280;43247;52.828;-8.980;2023-06-22T01:02:08;101930.20;;;15.59;77.84
57412;BME280;43247;52.828;-8.980;2023-06-22T01:03:09;101930.64;;;15.58;77.79
57412;BME280;43247;52.828;-8.980;2023-06-22T01:04:09;101931.44;;;15.57;77.73
57412;BME280;43247;52.828;-8.980;2023-06-22T01:05:09;101929.47;;;15.57;77.74
57412;BME280;43247;52.828;-8.980;2023-06-22T01:06:16;101930.32;;;15.56;77.80
57412;BME280;43247;52.828;-8.980;2023-06-22T01:07:13;101931.34;;;15.55;77.81
57412;BME280;43247;52.828;-8.980;2023-06-22T01:08:20;101933.25;;;15.54;77.83
57412;BME280;43247;52.828;-8.980;2023-06-22T01:09:14;101932.48;;;15.53;77.84
57412;BME280;43247;52.828;-8.980;2023-06-22T01:10:16;101932.70;;;15.52;77.79
57412;BME280;43247;52.828;-8.980;2023-06-22T01:11:14;101932.35;;;15.51;77.79
57412;BME280;43247;52.828;-8.980;2023-06-22T01:12:10;101930.40;;;15.50;77.77
57412;BME280;43247;52.828;-8.980;2023-06-22T01:13:17;101931.68;;;15.50;77.73
57412;BME280;43247;52.828;-8.980;2023-06-22T01:14:14;101931.67;;;15.48;77.69
57412;BME280;43247;52.828;-8.980;2023-06-22T01:15:16;101932.41;;;15.48;77.96
57412;BME280;43247;52.828;-8.980;2023-06-22T01:16:15;101932.17;;;15.48;77.99
57412;BME280;43247;52.828;-8.980;2023-06-22T01:17:12;101933.39;;;15.48;77.84
57412;BME280;43247;52.828;-8.980;2023-06-22T01:18:11;101934.04;;;15.48;77.81
57412;BME280;43247;52.828;-8.980;2023-06-22T01:19:23;101932.07;;;15.48;77.81
57412;BME280;43247;52.828;-8.980;2023-06-22T01:20:13;101934.08;;;15.48;77.70
57412;BME280;43247;52.828;-8.980;2023-06-22T01:21:15;101932.40;;;15.49;77.66
57412;BME280;43247;52.828;-8.980;2023-06-22T01:22:13;101931.48;;;15.49;77.65
57412;BME280;43247;52.828;-8.980;2023-06-22T01:23:19;101933.73;;;15.50;77.53
57412;BME280;43247;52.828;-8.980;2023-06-22T01:24:20;101933.13;;;15.50;77.48
57412;BME280;43247;52.828;-8.980;2023-06-22T01:25:16;101932.94;;;15.50;77.48
57412;BME280;43247;52.828;-8.980;2023-06-22T01:26:17;101932.22;;;15.50;77.42
57412;BME280;43247;52.828;-8.980;2023-06-22T01:27:24;101933.89;;;15.50;77.40
57412;BME280;43247;52.828;-8.980;2023-06-22T01:28:24;101932.92;;;15.50;77.43
57412;BME280;43247;52.828;-8.980;2023-06-22T01:29:15;101931.41;;;15.50;77.30
57412;BME280;43247;52.828;-8.980;2023-06-22T01:30:14;101929.38;;;15.49;77.44
57412;BME280;43247;52.828;-8.980;2023-06-22T01:31:16;101925.96;;;15.48;77.26
57412;BME280;43247;52.828;-8.980;2023-06-22T01:32:14;101926.95;;;15.48;77.20
57412;BME280;43247;52.828;-8.980;2023-06-22T01:33:14;101926.26;;;15.47;77.20
57412;BME280;43247;52.828;-8.980;2023-06-22T01:34:15;101923.86;;;15.47;77.28
57412;BME280;43247;52.828;-8.980;2023-06-22T01:35:15;101924.77;;;15.46;77.35
57412;BME280;43247;52.828;-8.980;2023-06-22T01:36:16;101926.62;;;15.45;77.22
57412;BME280;43247;52.828;-8.980;2023-06-22T01:37:15;101928.92;;;15.45;77.19
57412;BME280;43247;52.828;-8.980;2023-06-22T01:38:15;101927.98;;;15.44;77.09
57412;BME280;43247;52.828;-8.980;2023-06-22T01:39:16;101927.09;;;15.44;77.09
57412;BME280;43247;52.828;-8.980;2023-06-22T01:40:16;101926.18;;;15.44;77.17
57412;BME280;43247;52.828;-8.980;2023-06-22T01:41:16;101925.64;;;15.43;77.16
57412;BME280;43247;52.828;-8.980;2023-06-22T01:42:16;101926.69;;;15.42;77.08
57412;BME280;43247;52.828;-8.980;2023-06-22T01:43:16;101923.44;;;15.41;77.03
57412;BME280;43247;52.828;-8.980;2023-06-22T01:44:17;101926.42;;;15.39;77.00
57412;BME280;43247;52.828;-8.980;2023-06-22T01:45:17;101924.80;;;15.38;76.99
57412;BME280;43247;52.828;-8.980;2023-06-22T01:46:17;101926.99;;;15.36;77.11
57412;BME280;43247;52.828;-8.980;2023-06-22T01:47:17;101926.11;;;15.35;77.06
57412;BME280;43247;52.828;-8.980;2023-06-22T01:48:17;101928.15;;;15.34;77.18
57412;BME280;43247;52.828;-8.980;2023-06-22T01:49:17;101930.56;;;15.33;77.21
57412;BME280;43247;52.828;-8.980;2023-06-22T01:50:17;101930.27;;;15.32;77.24
57412;BME280;43247;52.828;-8.980;2023-06-22T01:51:17;101931.65;;;15.31;77.29
57412;BME280;43247;52.828;-8.980;2023-06-22T01:52:18;101932.31;;;15.29;77.41
57412;BME280;43247;52.828;-8.980;2023-06-22T01:53:17;101929.85;;;15.28;77.34
57412;BME280;43247;52.828;-8.980;2023-06-22T01:54:18;101931.59;;;15.29;77.16
57412;BME280;43247;52.828;-8.980;2023-06-22T01:55:18;101932.72;;;15.31;77.07
57412;BME280;43247;52.828;-8.980;2023-06-22T01:56:18;101933.88;;;15.31;77.03
57412;BME280;43247;52.828;-8.980;2023-06-22T01:57:18;101934.61;;;15.30;76.99
57412;BME280;43247;52.828;-8.980;2023-06-22T01:58:25;101934.86;;;15.29;77.02
57412;BME280;43247;52.828;-8.980;2023-06-22T01:59:25;101935.15;;;15.31;76.96
57412;BME280;43247;52.828;-8.980;2023-06-22T02:00:21;101934.63;;;15.31;76.92
57412;BME280;43247;52.828;-8.980;2023-06-22T02:01:23;101934.36;;;15.31;76.90
57412;BME280;43247;52.828;-8.980;2023-06-22T02:02:20;101934.96;;;15.32;76.96
57412;BME280;43247;52.828;-8.980;2023-06-22T02:03:22;101934.40;;;15.31;76.94
57412;BME280;43247;52.828;-8.980;2023-06-22T02:04:21;101931.36;;;15.30;76.80
57412;BME280;43247;52.828;-8.980;2023-06-22T02:05:20;101931.15;;;15.30;76.90
57412;BME280;43247;52.828;-8.980;2023-06-22T02:06:24;101929.83;;;15.30;77.00
57412;BME280;43247;52.828;-8.980;2023-06-22T02:07:22;101930.05;;;15.29;77.04
57412;BME280;43247;52.828;-8.980;2023-06-22T02:08:23;101930.47;;;15.28;76.98
57412;BME280;43247;52.828;-8.980;2023-06-22T02:09:22;101929.36;;;15.25;77.02
57412;BME280;43247;52.828;-8.980;2023-06-22T02:10:21;101930.51;;;15.24;77.09
57412;BME280;43247;52.828;-8.980;2023-06-22T02:11:21;101931.72;;;15.23;77.23
57412;BME280;43247;52.828;-8.980;2023-06-22T02:12:24;101930.41;;;15.23;77.21
57412;BME280;43247;52.828;-8.980;2023-06-22T02:13:23;101930.77;;;15.21;77.32
57412;BME280;43247;52.828;-8.980;2023-06-22T02:14:22;101932.83;;;15.21;77.15
57412;BME280;43247;52.828;-8.980;2023-06-22T02:15:22;101933.67;;;15.21;77.11
57412;BME280;43247;52.828;-8.980;2023-06-22T02:16:22;101933.20;;;15.20;77.08
57412;BME280;43247;52.828;-8.980;2023-06-22T02:17:26;101934.20;;;15.19;77.06
57412;BME280;43247;52.828;-8.980;2023-06-22T02:18:22;101932.12;;;15.18;77.10
57412;BME280;43247;52.828;-8.980;2023-06-22T02:19:23;101931.26;;;15.18;77.13
57412;BME280;43247;52.828;-8.980;2023-06-22T02:20:24;101933.84;;;15.17;77.15
57412;BME280;43247;52.828;-8.980;2023-06-22T02:21:23;101933.62;;;15.17;77.04
57412;BME280;43247;52.828;-8.980;2023-06-22T02:22:23;101933.45;;;15.16;77.01
57412;BME280;43247;52.828;-8.980;2023-06-22T02:23:23;101934.54;;;15.16;77.01
57412;BME280;43247;52.828;-8.980;2023-06-22T02:24:23;101932.54;;;15.14;77.07
57412;BME280;43247;52.828;-8.980;2023-06-22T02:25:24;101932.77;;;15.14;77.00
57412;BME280;43247;52.828;-8.980;2023-06-22T02:26:25;101932.88;;;15.12;77.13
57412;BME280;43247;52.828;-8.980;2023-06-22T02:27:24;101933.96;;;15.11;77.03
57412;BME280;43247;52.828;-8.980;2023-06-22T02:28:24;101934.64;;;15.10;77.10
57412;BME280;43247;52.828;-8.980;2023-06-22T02:29:24;101932.03;;;15.10;77.05
57412;BME280;43247;52.828;-8.980;2023-06-22T02:30:24;101934.86;;;15.09;77.09
57412;BME280;43247;52.828;-8.980;2023-06-22T02:31:25;101936.43;;;15.10;77.16
57412;BME280;43247;52.828;-8.980;2023-06-22T02:32:25;101938.46;;;15.09;77.30
57412;BME280;43247;52.828;-8.980;2023-06-22T02:33:25;101940.85;;;15.08;77.12
57412;BME280;43247;52.828;-8.980;2023-06-22T02:34:26;101942.88;;;15.07;77.04
57412;BME280;43247;52.828;-8.980;2023-06-22T02:35:27;101942.48;;;15.06;77.16
57412;BME280;43247;52.828;-8.980;2023-06-22T02:36:26;101943.12;;;15.05;77.10
57412;BME280;43247;52.828;-8.980;2023-06-22T02:37:26;101943.07;;;15.05;77.11
57412;BME280;43247;52.828;-8.980;2023-06-22T02:38:26;101941.33;;;15.05;77.17
57412;BME280;43247;52.828;-8.980;2023-06-22T02:39:26;101941.20;;;15.04;77.16
57412;BME280;43247;52.828;-8.980;2023-06-22T02:40:27;101942.44;;;15.03;77.26
57412;BME280;43247;52.828;-8.980;2023-06-22T02:41:27;101939.62;;;15.02;77.25
57412;BME280;43247;52.828;-8.980;2023-06-22T02:42:27;101940.11;;;15.01;77.22
57412;BME280;43247;52.828;-8.980;2023-06-22T02:43:27;101937.89;;;15.00;77.29
57412;BME280;43247;52.828;-8.980;2023-06-22T02:44:27;101935.20;;;14.99;77.32
57412;BME280;43247;52.828;-8.980;2023-06-22T02:45:28;101933.89;;;14.99;77.38
57412;BME280;43247;52.828;-8.980;2023-06-22T02:46:28;101932.43;;;14.98;77.46
57412;BME280;43247;52.828;-8.980;2023-06-22T02:47:28;101935.89;;;14.97;77.42
57412;BME280;43247;52.828;-8.980;2023-06-22T02:48:28;101933.17;;;14.96;77.53
57412;BME280;43247;52.828;-8.980;2023-06-22T02:49:28;101933.88;;;14.96;77.54
57412;BME280;43247;52.828;-8.980;2023-06-22T02:50:28;101935.96;;;14.95;77.63
57412;BME280;43247;52.828;-8.980;2023-06-22T02:51:29;101931.67;;;14.94;77.52
57412;BME280;43247;52.828;-8.980;2023-06-22T02:52:29;101934.83;;;14.93;77.53
57412;BME280;43247;52.828;-8.980;2023-06-22T02:53:29;101932.09;;;14.92;77.56
57412;BME280;43247;52.828;-8.980;2023-06-22T02:54:29;101933.24;;;14.91;77.64
57412;BME280;43247;52.828;-8.980;2023-06-22T02:55:29;101934.18;;;14.91;77.60
57412;BME280;43247;52.828;-8.980;2023-06-22T02:56:29;101935.97;;;14.89;77.64
57412;BME280;43247;52.828;-8.980;2023-06-22T02:57:29;101936.69;;;14.89;77.56
57412;BME280;43247;52.828;-8.980;2023-06-22T02:58:30;101937.43;;;14.89;77.73
57412;BME280;43247;52.828;-8.980;2023-06-22T02:59:30;101937.24;;;14.88;77.69
57412;BME280;43247;52.828;-8.980;2023-06-22T03:00:30;101935.49;;;14.87;77.63
57412;BME280;43247;52.828;-8.980;2023-06-22T03:01:30;101934.82;;;14.87;77.49
57412;BME280;43247;52.828;-8.980;2023-06-22T03:02:30;101934.45;;;14.86;77.47
57412;BME280;43247;52.828;-8.980;2023-06-22T03:03:30;101934.17;;;14.85;77.52
57412;BME280;43247;52.828;-8.980;2023-06-22T03:04:31;101933.60;;;14.84;77.51
57412;BME280;43247;52.828;-8.980;2023-06-22T03:05:31;101933.01;;;14.82;77.47
57412;BME280;43247;52.828;-8.980;2023-06-22T03:06:31;101932.27;;;14.81;77.35
57412;BME280;43247;52.828;-8.980;2023-06-22T03:07:31;101929.92;;;14.79;77.50
57412;BME280;43247;52.828;-8.980;2023-06-22T03:08:31;101929.99;;;14.76;77.35
57412;BME280;43247;52.828;-8.980;2023-06-22T03:09:31;101930.98;;;14.77;77.18
57412;BME280;43247;52.828;-8.980;2023-06-22T03:10:32;101928.05;;;14.77;77.02
57412;BME280;43247;52.828;-8.980;2023-06-22T03:11:32;101929.47;;;14.77;76.73
57412;BME280;43247;52.828;-8.980;2023-06-22T03:12:32;101928.25;;;14.77;76.67
57412;BME280;43247;52.828;-8.980;2023-06-22T03:13:32;101929.38;;;14.82;76.61
57412;BME280;43247;52.828;-8.980;2023-06-22T03:14:32;101931.69;;;14.82;76.51
57412;BME280;43247;52.828;-8.980;2023-06-22T03:15:32;101930.60;;;14.80;76.47
57412;BME280;43247;52.828;-8.980;2023-06-22T03:16:32;101930.65;;;14.79;76.51
57412;BME280;43247;52.828;-8.980;2023-06-22T03:17:33;101930.53;;;14.79;76.49
57412;BME280;43247;52.828;-8.980;2023-06-22T03:18:33;101931.80;;;14.79;76.44
57412;BME280;43247;52.828;-8.980;2023-06-22T03:19:33;101933.05;;;14.77;76.47
57412;BME280;43247;52.828;-8.980;2023-06-22T03:20:33;101932.51;;;14.75;76.39
57412;BME280;43247;52.828;-8.980;2023-06-22T03:21:33;101932.34;;;14.75;76.43
57412;BME280;43247;52.828;-8.980;2023-06-22T03:22:33;101934.27;;;14.75;76.46
57412;BME280;43247;52.828;-8.980;2023-06-22T03:23:34;101934.32;;;14.73;76.39
57412;BME280;43247;52.828;-8.980;2023-06-22T03:24:34;101937.06;;;14.73;76.43
57412;BME280;43247;52.828;-8.980;2023-06-22T03:25:35;101933.93;;;14.73;76.46
57412;BME280;43247;52.828;-8.980;2023-06-22T03:26:34;101933.60;;;14.71;76.46
57412;BME280;43247;52.828;-8.980;2023-06-22T03:27:34;101931.55;;;14.71;76.43
57412;BME280;43247;52.828;-8.980;2023-06-22T03:28:34;101930.25;;;14.70;76.37
57412;BME280;43247;52.828;-8.980;2023-06-22T03:29:35;101931.28;;;14.69;76.31
57412;BME280;43247;52.828;-8.980;2023-06-22T03:30:35;101931.58;;;14.68;76.29
57412;BME280;43247;52.828;-8.980;2023-06-22T03:31:35;101932.45;;;14.67;76.29
57412;BME280;43247;52.828;-8.980;2023-06-22T03:32:36;101933.77;;;14.67;76.26
57412;BME280;43247;52.828;-8.980;2023-06-22T03:33:36;101935.19;;;14.65;76.21
57412;BME280;43247;52.828;-8.980;2023-06-22T03:34:36;101932.10;;;14.63;76.25
57412;BME280;43247;52.828;-8.980;2023-06-22T03:35:36;101931.69;;;14.62;76.13
57412;BME280;43247;52.828;-8.980;2023-06-22T03:36:36;101927.32;;;14.60;76.16
57412;BME280;43247;52.828;-8.980;2023-06-22T03:37:36;101925.05;;;14.58;76.32
57412;BME280;43247;52.828;-8.980;2023-06-22T03:38:37;101925.09;;;14.57;76.16
57412;BME280;43247;52.828;-8.980;2023-06-22T03:39:37;101924.14;;;14.56;76.29
57412;BME280;43247;52.828;-8.980;2023-06-22T03:40:37;101925.97;;;14.53;76.19
57412;BME280;43247;52.828;-8.980;2023-06-22T03:41:37;101926.78;;;14.53;75.98
57412;BME280;43247;52.828;-8.980;2023-06-22T03:42:37;101930.75;;;14.35;76.34
57412;BME280;43247;52.828;-8.980;2023-06-22T03:43:38;101933.26;;;14.34;76.29
57412;BME280;43247;52.828;-8.980;2023-06-22T03:44:38;101932.36;;;14.35;76.33
57412;BME280;43247;52.828;-8.980;2023-06-22T03:45:38;101931.82;;;14.33;76.50
57412;BME280;43247;52.828;-8.980;2023-06-22T03:46:38;101931.20;;;14.42;76.35
57412;BME280;43247;52.828;-8.980;2023-06-22T03:47:38;101931.78;;;14.37;76.52
57412;BME280;43247;52.828;-8.980;2023-06-22T03:48:38;101931.27;;;14.45;76.41
57412;BME280;43247;52.828;-8.980;2023-06-22T03:49:38;101930.76;;;14.50;76.23
57412;BME280;43247;52.828;-8.980;2023-06-22T03:50:39;101931.48;;;14.52;76.19
57412;BME280;43247;52.828;-8.980;2023-06-22T03:51:39;101931.79;;;14.52;76.23
57412;BME280;43247;52.828;-8.980;2023-06-22T03:52:39;101931.79;;;14.53;76.06
57412;BME280;43247;52.828;-8.980;2023-06-22T03:53:39;101932.71;;;14.54;76.25
57412;BME280;43247;52.828;-8.980;2023-06-22T03:54:39;101932.02;;;14.56;76.35
57412;BME280;43247;52.828;-8.980;2023-06-22T03:55:48;101931.01;;;14.57;76.19
57412;BME280;43247;52.828;-8.980;2023-06-22T03:56:40;101931.49;;;14.57;76.16
57412;BME280;43247;52.828;-8.980;2023-06-22T03:57:40;101932.11;;;14.57;76.17
57412;BME280;43247;52.828;-8.980;2023-06-22T03:58:40;101931.65;;;14.58;76.26
57412;BME280;43247;52.828;-8.980;2023-06-22T03:59:40;101933.23;;;14.56;76.28
57412;BME280;43247;52.828;-8.980;2023-06-22T04:00:40;101933.73;;;14.54;76.33
57412;BME280;43247;52.828;-8.980;2023-06-22T04:01:40;101931.97;;;14.54;76.36
57412;BME280;43247;52.828;-8.980;2023-06-22T04:02:41;101934.41;;;14.53;76.38
57412;BME280;43247;52.828;-8.980;2023-06-22T04:03:41;101934.50;;;14.52;76.39
57412;BME280;43247;52.828;-8.980;2023-06-22T04:04:41;101936.43;;;14.52;76.44
57412;BME280;43247;52.828;-8.980;2023-06-22T04:05:41;101936.86;;;14.50;76.54
57412;BME280;43247;52.828;-8.980;2023-06-22T04:06:41;101938.50;;;14.49;76.55
57412;BME280;43247;52.828;-8.980;2023-06-22T04:07:41;101938.46;;;14.49;76.68
57412;BME280;43247;52.828;-8.980;2023-06-22T04:08:42;101939.18;;;14.48;76.65
57412;BME280;43247;52.828;-8.980;2023-06-22T04:09:42;101939.40;;;14.49;76.54
57412;BME280;43247;52.828;-8.980;2023-06-22T04:10:42;101939.81;;;14.47;76.57
57412;BME280;43247;52.828;-8.980;2023-06-22T04:11:42;101939.88;;;14.48;76.55
57412;BME280;43247;52.828;-8.980;2023-06-22T04:12:42;101936.27;;;14.47;76.72
57412;BME280;43247;52.828;-8.980;2023-06-22T04:13:42;101937.27;;;14.46;76.59
57412;BME280;43247;52.828;-8.980;2023-06-22T04:14:43;101935.23;;;14.46;76.60
57412;BME280;43247;52.828;-8.980;2023-06-22T04:15:43;101935.20;;;14.45;76.62
57412;BME280;43247;52.828;-8.980;2023-06-22T04:16:43;101935.95;;;14.44;76.62
57412;BME280;43247;52.828;-8.980;2023-06-22T04:17:43;101936.19;;;14.44;76.58
57412;BME280;43247;52.828;-8.980;2023-06-22T04:18:43;101934.80;;;14.42;76.63
57412;BME280;43247;52.828;-8.980;2023-06-22T04:19:43;101935.53;;;14.41;76.65
57412;BME280;43247;52.828;-8.980;2023-06-22T04:20:43;101934.37;;;14.40;76.62
57412;BME280;43247;52.828;-8.980;2023-06-22T04:21:44;101936.06;;;14.39;76.59
57412;BME280;43247;52.828;-8.980;2023-06-22T04:22:44;101936.96;;;14.39;76.64
57412;BME280;43247;52.828;-8.980;2023-06-22T04:23:44;101936.38;;;14.38;76.75
57412;BME280;43247;52.828;-8.980;2023-06-22T04:24:44;101935.15;;;14.37;76.72
57412;BME280;43247;52.828;-8.980;2023-06-22T04:25:44;101935.68;;;14.37;76.79
57412;BME280;43247;52.828;-8.980;2023-06-22T04:26:45;101936.44;;;14.37;76.71
57412;BME280;43247;52.828;-8.980;2023-06-22T04:27:45;101935.39;;;14.35;76.63
57412;BME280;43247;52.828;-8.980;2023-06-22T04:28:45;101938.24;;;14.36;76.63
57412;BME280;43247;52.828;-8.980;2023-06-22T04:29:45;101940.35;;;14.34;76.78
57412;BME280;43247;52.828;-8.980;2023-06-22T04:30:46;101944.22;;;14.34;76.73
57412;BME280;43247;52.828;-8.980;2023-06-22T04:31:46;101945.91;;;14.33;76.72
57412;BME280;43247;52.828;-8.980;2023-06-22T04:32:46;101946.47;;;14.33;76.73
57412;BME280;43247;52.828;-8.980;2023-06-22T04:33:46;101946.36;;;14.32;76.80
57412;BME280;43247;52.828;-8.980;2023-06-22T04:34:46;101948.02;;;14.30;76.70
57412;BME280;43247;52.828;-8.980;2023-06-22T04:35:47;101948.52;;;14.30;76.73
57412;BME280;43247;52.828;-8.980;2023-06-22T04:36:47;101946.73;;;14.29;76.71
57412;BME280;43247;52.828;-8.980;2023-06-22T04:37:47;101949.05;;;14.28;76.75
57412;BME280;43247;52.828;-8.980;2023-06-22T04:38:47;101948.70;;;14.27;76.78
57412;BME280;43247;52.828;-8.980;2023-06-22T04:39:47;101948.99;;;14.27;76.76
57412;BME280;43247;52.828;-8.980;2023-06-22T04:40:47;101952.79;;;14.26;76.78
57412;BME280;43247;52.828;-8.980;2023-06-22T04:41:47;101952.65;;;14.25;76.76
57412;BME280;43247;52.828;-8.980;2023-06-22T04:42:48;101953.55;;;14.25;76.69
57412;BME280;43247;52.828;-8.980;2023-06-22T04:43:48;101953.42;;;14.24;76.62
57412;BME280;43247;52.828;-8.980;2023-06-22T04:44:48;101954.20;;;14.23;76.69
57412;BME280;43247;52.828;-8.980;2023-06-22T04:45:48;101952.86;;;14.22;76.67
57412;BME280;43247;52.828;-8.980;2023-06-22T04:46:48;101950.48;;;14.22;76.67
57412;BME280;43247;52.828;-8.980;2023-06-22T04:47:48;101948.25;;;14.21;76.72
57412;BME280;43247;52.828;-8.980;2023-06-22T04:48:48;101948.25;;;14.20;76.63
57412;BME280;43247;52.828;-8.980;2023-06-22T04:49:49;101948.91;;;14.20;76.75
57412;BME280;43247;52.828;-8.980;2023-06-22T04:50:50;101947.66;;;14.19;76.75
57412;BME280;43247;52.828;-8.980;2023-06-22T04:51:50;101947.72;;;14.18;76.75
57412;BME280;43247;52.828;-8.980;2023-06-22T04:52:51;101950.16;;;14.18;76.73
57412;BME280;43247;52.828;-8.980;2023-06-22T04:53:50;101952.02;;;14.17;76.75
57412;BME280;43247;52.828;-8.980;2023-06-22T04:54:50;101951.31;;;14.17;76.86
57412;BME280;43247;52.828;-8.980;2023-06-22T04:55:50;101951.60;;;14.16;76.81
57412;BME280;43247;52.828;-8.980;2023-06-22T04:56:50;101951.90;;;14.16;76.76
57412;BME280;43247;52.828;-8.980;2023-06-22T04:57:51;101953.36;;;14.15;76.94
57412;BME280;43247;52.828;-8.980;2023-06-22T04:58:51;101956.44;;;14.16;76.93
57412;BME280;43247;52.828;-8.980;2023-06-22T04:59:51;101957.80;;;14.15;77.01
57412;BME280;43247;52.828;-8.980;2023-06-22T05:00:51;101958.42;;;14.15;77.03
57412;BME280;43247;52.828;-8.980;2023-06-22T05:01:51;101959.05;;;14.14;76.99
57412;BME280;43247;52.828;-8.980;2023-06-22T05:02:52;101958.51;;;14.14;76.98
57412;BME280;43247;52.828;-8.980;2023-06-22T05:03:52;101958.07;;;14.14;76.97
57412;BME280;43247;52.828;-8.980;2023-06-22T05:04:52;101960.08;;;14.14;77.02
57412;BME280;43247;52.828;-8.980;2023-06-22T05:05:52;101959.98;;;14.14;77.13
57412;BME280;43247;52.828;-8.980;2023-06-22T05:06:52;101961.27;;;14.13;77.12
57412;BME280;43247;52.828;-8.980;2023-06-22T05:07:52;101961.15;;;14.13;77.13
57412;BME280;43247;52.828;-8.980;2023-06-22T05:08:54;101961.78;;;14.12;77.13
57412;BME280;43247;52.828;-8.980;2023-06-22T05:09:53;101963.05;;;14.12;77.04
57412;BME280;43247;52.828;-8.980;2023-06-22T05:10:53;101964.17;;;14.12;77.21